createdAt,value
2022-10-16T00:00:45.156Z,101002.44
2022-10-16T00:03:47.945Z,100995.66
2022-10-16T00:06:49.268Z,101001.97
2022-10-16T00:09:50.816Z,101006.13
2022-10-16T00:12:52.168Z,101001.88
2022-10-16T00:15:57.165Z,100998.50
2022-10-16T00:18:58.903Z,101002.06
2022-10-16T00:22:00.224Z,101006.38
2022-10-16T00:25:01.561Z,101006.94
2022-10-16T00:28:03.029Z,101007.63
2022-10-16T00:31:09.742Z,101009.72
2022-10-16T00:34:11.188Z,101015.78
2022-10-16T00:37:13.410Z,101004.53
2022-10-16T00:40:14.766Z,101002.97
2022-10-16T00:43:36.255Z,101015.09
2022-10-16T00:46:43.073Z,101020.09
2022-10-16T00:49:44.510Z,101021.31
2022-10-16T00:52:49.035Z,101024.34
2022-10-16T00:55:50.435Z,101018.81
2022-10-16T00:58:51.831Z,101022.50
2022-10-16T01:01:54.304Z,101019.31
2022-10-16T01:04:55.963Z,101017.81
2022-10-16T01:08:09.548Z,101021.41
2022-10-16T01:11:25.716Z,101029.47
2022-10-16T01:14:49.583Z,101021.84
2022-10-16T01:17:53.865Z,101022.03
2022-10-16T01:21:03.739Z,101021.28
2022-10-16T01:24:32.112Z,101026.72
2022-10-16T01:27:36.830Z,101024.97
2022-10-16T01:30:39.782Z,101022.63
2022-10-16T01:33:47.336Z,101025.50
2022-10-16T01:36:54.248Z,101027.50
2022-10-16T01:39:59.292Z,101022.69
2022-10-16T01:43:06.043Z,101025.53
2022-10-16T01:46:09.433Z,101024.69
2022-10-16T01:49:11.235Z,101029.31
2022-10-16T01:52:20.545Z,101032.16
2022-10-16T01:55:34.768Z,101031.25
2022-10-16T01:58:43.181Z,101029.66
2022-10-16T02:01:50.185Z,101035.84
2022-10-16T02:04:59.306Z,101040.31
2022-10-16T02:08:03.208Z,101037.91
2022-10-16T02:11:07.424Z,101035.41
2022-10-16T02:14:08.770Z,101031.25
2022-10-16T02:17:17.863Z,101034.00
2022-10-16T02:20:25.671Z,101040.19
2022-10-16T02:23:46.358Z,101047.13
2022-10-16T02:27:06.806Z,101044.75
2022-10-16T02:30:14.131Z,101043.94
2022-10-16T02:33:16.987Z,101041.63
2022-10-16T02:36:18.524Z,101042.59
2022-10-16T02:39:21.279Z,101048.53
2022-10-16T02:42:29.139Z,101041.84
2022-10-16T02:45:30.603Z,101040.28
2022-10-16T02:48:31.951Z,101043.94
2022-10-16T02:51:33.392Z,101042.44
2022-10-16T02:54:34.748Z,101041.75
2022-10-16T02:57:36.128Z,101051.34
2022-10-16T03:00:37.543Z,101048.00
2022-10-16T03:03:39.352Z,101039.56
2022-10-16T03:06:40.700Z,101046.69
2022-10-16T03:09:42.240Z,101046.75
2022-10-16T03:12:43.561Z,101047.66
2022-10-16T03:15:44.912Z,101044.41
2022-10-16T03:18:49.726Z,101050.44
2022-10-16T03:21:51.052Z,101045.56
2022-10-16T03:24:52.430Z,101042.22
2022-10-16T03:27:53.756Z,101039.66
2022-10-16T03:30:55.116Z,101041.28
2022-10-16T03:33:56.665Z,101047.31
2022-10-16T03:36:58.193Z,101037.88
2022-10-16T03:39:59.657Z,101045.66
2022-10-16T03:43:01.079Z,101056.59
2022-10-16T03:46:02.537Z,101054.75
2022-10-16T03:49:06.103Z,101052.31
2022-10-16T03:52:10.330Z,101054.81
2022-10-16T03:55:11.701Z,101057.41
2022-10-16T03:58:13.102Z,101061.75
2022-10-16T04:01:14.599Z,101073.84
2022-10-16T04:04:15.966Z,101068.84
2022-10-16T04:07:17.346Z,101075.00
2022-10-16T04:10:18.952Z,101087.78
2022-10-16T04:16:26.723Z,101088.53
2022-10-16T04:19:28.074Z,101077.44
2022-10-16T04:22:29.763Z,101086.09
2022-10-16T04:25:31.269Z,101080.25
2022-10-16T04:28:32.662Z,101089.78
2022-10-16T04:31:34.507Z,101089.94
2022-10-16T04:34:35.931Z,101109.84
2022-10-16T04:37:37.294Z,101111.59
2022-10-16T04:40:38.772Z,101115.94
2022-10-16T04:43:40.167Z,101116.69
2022-10-16T04:46:41.503Z,101103.53
2022-10-16T04:49:42.843Z,101104.38
2022-10-16T04:52:44.232Z,101099.03
2022-10-16T04:55:45.564Z,101101.28
2022-10-16T04:58:46.923Z,101099.41
2022-10-16T05:01:48.711Z,101101.06
2022-10-16T05:04:50.056Z,101106.34
2022-10-16T05:07:51.420Z,101103.56
2022-10-16T05:10:52.750Z,101120.00
2022-10-16T05:13:55.841Z,101127.69
2022-10-16T05:16:57.383Z,101131.88
2022-10-16T05:19:58.845Z,101128.75
2022-10-16T05:23:00.224Z,101135.53
2022-10-16T05:26:01.662Z,101135.53
2022-10-16T05:29:03.191Z,101135.69
2022-10-16T05:32:04.577Z,101144.34
2022-10-16T05:35:08.684Z,101147.75
2022-10-16T05:38:15.936Z,101140.16
2022-10-16T05:41:17.281Z,101150.34
2022-10-16T05:44:18.628Z,101142.47
2022-10-16T05:47:20.109Z,101149.06
2022-10-16T05:50:21.513Z,101141.06
2022-10-16T05:53:22.827Z,101141.81
2022-10-16T05:56:24.171Z,101147.91
2022-10-16T05:59:25.571Z,101148.72
2022-10-16T06:02:26.980Z,101152.31
2022-10-16T06:05:28.382Z,101154.91
2022-10-16T06:08:29.703Z,101154.16
2022-10-16T06:11:33.967Z,101156.50
2022-10-16T06:14:35.343Z,101154.75
2022-10-16T06:17:36.704Z,101162.09
2022-10-16T06:20:38.211Z,101172.06
2022-10-16T06:23:39.834Z,101175.75
2022-10-16T06:26:41.220Z,101180.94
2022-10-16T06:29:42.952Z,101185.13
2022-10-16T06:32:44.339Z,101186.25
2022-10-16T06:35:45.684Z,101187.25
2022-10-16T06:38:47.396Z,101190.94
2022-10-16T06:41:48.824Z,101191.00
2022-10-16T06:44:50.549Z,101179.66
2022-10-16T06:47:51.892Z,101182.00
2022-10-16T06:54:06.488Z,101194.63
2022-10-16T06:57:07.884Z,101202.63
2022-10-16T07:00:09.692Z,101204.72
2022-10-16T07:03:11.071Z,101208.25
2022-10-16T07:06:14.629Z,101213.31
2022-10-16T07:09:15.956Z,101212.34
2022-10-16T07:12:17.311Z,101224.34
2022-10-16T07:15:18.645Z,101225.84
2022-10-16T07:18:20.081Z,101232.97
2022-10-16T07:21:22.558Z,101238.66
2022-10-16T07:24:23.894Z,101237.56
2022-10-16T07:27:25.320Z,101235.69
2022-10-16T07:30:26.733Z,101246.69
2022-10-16T07:33:28.133Z,101249.69
2022-10-16T07:36:29.540Z,101244.31
2022-10-16T07:39:30.905Z,101245.16
2022-10-16T07:42:32.226Z,101252.38
2022-10-16T07:45:33.551Z,101260.44
2022-10-16T07:48:35.484Z,101256.16
2022-10-16T07:51:36.846Z,101268.13
2022-10-16T07:54:38.194Z,101268.50
2022-10-16T07:57:39.530Z,101265.41
2022-10-16T08:00:40.877Z,101276.63
2022-10-16T08:03:43.879Z,101274.91
2022-10-16T08:06:45.222Z,101275.56
2022-10-16T08:09:50.207Z,101279.28
2022-10-16T08:12:52.271Z,101280.03
2022-10-16T08:15:54.696Z,101276.25
2022-10-16T08:18:56.053Z,101274.19
2022-10-16T08:21:57.504Z,101273.25
2022-10-16T08:24:58.908Z,101287.91
2022-10-16T08:28:00.275Z,101283.72
2022-10-16T08:31:12.266Z,101279.91
2022-10-16T08:34:13.737Z,101276.56
2022-10-16T08:37:15.104Z,101282.22
2022-10-16T08:40:30.706Z,101268.28
2022-10-16T08:43:35.035Z,101290.59
2022-10-16T08:46:36.349Z,101295.25
2022-10-16T08:52:46.032Z,101299.44
2022-10-16T08:55:52.368Z,101301.31
2022-10-16T08:58:58.192Z,101306.56
2022-10-16T09:02:02.848Z,101323.69
2022-10-16T09:05:23.013Z,101326.22
2022-10-16T09:08:45.629Z,101334.31
2022-10-16T09:11:53.846Z,101338.50
2022-10-16T09:15:30.306Z,101327.09
2022-10-16T09:18:39.834Z,101333.56
2022-10-16T09:21:44.901Z,101332.16
2022-10-16T09:24:46.454Z,101337.03
2022-10-16T09:27:51.866Z,101333.31
2022-10-16T09:30:53.470Z,101348.25
2022-10-16T09:34:01.051Z,101338.28
2022-10-16T09:37:09.508Z,101330.28
2022-10-16T09:40:25.241Z,101333.25
2022-10-16T09:43:41.348Z,101334.97
2022-10-16T09:46:42.719Z,101344.41
2022-10-16T09:49:52.842Z,101334.75
2022-10-16T09:53:05.391Z,101360.44
2022-10-16T09:56:10.322Z,101363.19
2022-10-16T09:59:21.951Z,101360.53
2022-10-16T10:02:34.764Z,101363.84
2022-10-16T10:05:36.140Z,101367.00
2022-10-16T10:08:37.501Z,101365.38
2022-10-16T10:11:58.602Z,101374.09
2022-10-16T10:15:07.357Z,101371.41
2022-10-16T10:18:19.857Z,101366.94
2022-10-16T10:21:21.182Z,101374.28
2022-10-16T10:24:22.576Z,101374.38
2022-10-16T10:27:39.564Z,101366.78
2022-10-16T10:30:49.967Z,101372.22
2022-10-16T10:34:01.777Z,101372.06
2022-10-16T10:37:34.406Z,101381.75
2022-10-16T10:40:50.853Z,101386.47
2022-10-16T10:44:29.579Z,101390.41
2022-10-16T10:47:45.857Z,101388.66
2022-10-16T10:50:54.690Z,101392.28
2022-10-16T10:54:04.211Z,101398.94
2022-10-16T10:57:19.990Z,101393.72
2022-10-16T11:00:30.999Z,101402.97
2022-10-16T11:03:32.294Z,101403.56
2022-10-16T11:06:40.906Z,101419.00
2022-10-16T11:09:46.744Z,101412.59
2022-10-16T11:12:55.919Z,101425.34
2022-10-16T11:16:01.352Z,101429.81
2022-10-16T11:19:15.491Z,101429.25
2022-10-16T11:22:38.992Z,101436.06
2022-10-16T11:25:40.607Z,101450.38
2022-10-16T11:28:50.374Z,101438.09
2022-10-16T11:31:57.537Z,101440.59
2022-10-16T11:35:07.852Z,101448.66
2022-10-16T11:38:18.210Z,101448.38
2022-10-16T11:41:54.136Z,101453.56
2022-10-16T11:45:01.096Z,101442.97
2022-10-16T11:48:21.112Z,101446.41
2022-10-16T11:51:43.925Z,101460.56
2022-10-16T11:55:15.476Z,101459.94
2022-10-16T11:58:42.436Z,101472.06
2022-10-16T12:01:50.526Z,101473.75
2022-10-16T12:05:01.761Z,101476.28
2022-10-16T12:08:14.686Z,101481.75
2022-10-16T12:11:32.381Z,101499.50
2022-10-16T12:14:34.967Z,101498.72
2022-10-16T12:17:39.481Z,101499.72
2022-10-16T12:20:40.898Z,101508.56
2022-10-16T12:24:01.066Z,101512.03
2022-10-16T12:27:03.771Z,101526.78
2022-10-16T12:30:07.250Z,101517.84
2022-10-16T12:33:23.922Z,101515.16
2022-10-16T12:36:34.567Z,101519.31
2022-10-16T12:39:37.261Z,101518.31
2022-10-16T12:42:38.598Z,101530.63
2022-10-16T12:45:40.135Z,101540.03
2022-10-16T12:48:55.276Z,101536.25
2022-10-16T12:52:03.686Z,101541.53
2022-10-16T12:55:16.048Z,101534.72
2022-10-16T12:58:32.915Z,101544.91
2022-10-16T13:02:01.975Z,101545.00
2022-10-16T13:05:12.287Z,101553.22
2022-10-16T13:08:23.359Z,101551.75
2022-10-16T13:11:50.135Z,101559.44
2022-10-16T13:15:01.479Z,101566.31
2022-10-16T13:18:22.524Z,101578.66
2022-10-16T13:21:42.621Z,101576.44
2022-10-16T13:24:55.928Z,101581.91
2022-10-16T13:28:06.561Z,101579.50
2022-10-16T13:31:22.464Z,101585.56
2022-10-16T13:34:23.952Z,101598.06
2022-10-16T13:37:26.274Z,101594.44
2022-10-16T13:40:27.953Z,101600.50
2022-10-16T13:43:48.811Z,101607.44
2022-10-16T13:47:00.396Z,101608.91
2022-10-16T13:50:02.793Z,101614.34
2022-10-16T13:53:13.625Z,101611.22
2022-10-16T13:56:18.645Z,101615.66
2022-10-16T13:59:25.794Z,101629.25
2022-10-16T14:02:34.558Z,101638.38
2022-10-16T14:05:35.985Z,101634.16
2022-10-16T14:08:37.409Z,101647.31
2022-10-16T14:11:47.015Z,101645.03
2022-10-16T14:14:52.072Z,101652.34
2022-10-16T14:17:54.520Z,101648.38
2022-10-16T14:21:00.882Z,101659.88
2022-10-16T14:24:27.593Z,101670.50
2022-10-16T14:27:37.960Z,101677.09
2022-10-16T14:30:52.489Z,101683.88
2022-10-16T14:33:54.737Z,101675.72
2022-10-16T14:36:57.425Z,101680.63
2022-10-16T14:39:59.069Z,101688.13
2022-10-16T14:43:02.207Z,101686.38
2022-10-16T14:46:10.471Z,101698.50
2022-10-16T14:49:11.805Z,101688.44
2022-10-16T14:52:15.487Z,101692.09
2022-10-16T14:55:18.059Z,101691.47
2022-10-16T14:58:22.790Z,101703.88
2022-10-16T15:01:24.151Z,101707.41
2022-10-16T15:04:25.499Z,101710.81
2022-10-16T15:07:27.113Z,101713.72
2022-10-16T15:10:30.675Z,101714.66
2022-10-16T15:13:32.022Z,101722.78
2022-10-16T15:16:33.595Z,101717.91
2022-10-16T15:19:34.970Z,101721.75
2022-10-16T15:22:36.299Z,101725.69
2022-10-16T15:25:42.063Z,101726.25
2022-10-16T15:28:43.436Z,101726.94
2022-10-16T15:31:44.914Z,101731.03
2022-10-16T15:34:46.251Z,101737.66
2022-10-16T15:37:48.623Z,101731.41
2022-10-16T15:40:50.857Z,101747.03
2022-10-16T15:43:52.683Z,101751.97
2022-10-16T15:46:55.672Z,101749.72
2022-10-16T15:49:57.028Z,101757.22
2022-10-16T15:52:58.719Z,101760.50
2022-10-16T15:56:03.191Z,101759.72
2022-10-16T15:59:05.668Z,101774.19
2022-10-16T16:02:08.977Z,101771.94
2022-10-16T16:05:11.680Z,101766.94
2022-10-16T16:08:13.120Z,101762.16
2022-10-16T16:11:16.035Z,101760.72
2022-10-16T16:14:17.628Z,101764.09
2022-10-16T16:17:18.996Z,101770.72
2022-10-16T16:20:20.374Z,101784.38
2022-10-16T16:23:21.700Z,101791.94
2022-10-16T16:26:25.729Z,101796.22
2022-10-16T16:29:27.045Z,101800.16
2022-10-16T16:32:28.422Z,101806.59
2022-10-16T16:35:29.750Z,101807.97
2022-10-16T16:38:33.701Z,101816.97
2022-10-16T16:41:35.084Z,101814.16
2022-10-16T16:44:37.240Z,101825.59
2022-10-16T16:47:38.590Z,101832.84
2022-10-16T16:50:39.932Z,101840.78
2022-10-16T16:53:42.235Z,101846.97
2022-10-16T16:56:43.598Z,101859.19
2022-10-16T16:59:44.955Z,101855.06
2022-10-16T17:02:49.982Z,101858.31
2022-10-16T17:05:58.466Z,101854.53
2022-10-16T17:09:03.298Z,101868.69
2022-10-16T17:12:05.003Z,101877.53
2022-10-16T17:15:06.916Z,101880.31
2022-10-16T17:18:08.283Z,101880.53
2022-10-16T17:21:10.131Z,101890.00
2022-10-16T17:24:12.024Z,101887.41
2022-10-16T17:27:13.551Z,101897.06
2022-10-16T17:30:14.927Z,101899.66
2022-10-16T17:33:16.271Z,101907.66
2022-10-16T17:36:18.331Z,101910.41
2022-10-16T17:39:20.069Z,101909.59
2022-10-16T17:42:21.515Z,101916.84
2022-10-16T17:45:22.986Z,101923.06
2022-10-16T17:48:24.340Z,101934.34
2022-10-16T17:51:29.526Z,101940.47
2022-10-16T17:54:30.888Z,101949.91
2022-10-16T17:57:32.281Z,101947.25
2022-10-16T18:00:34.104Z,101953.13
2022-10-16T18:03:35.437Z,101959.00
2022-10-16T18:06:37.346Z,101948.78
2022-10-16T18:09:49.530Z,101949.91
2022-10-16T18:13:00.425Z,101954.53
2022-10-16T18:16:04.121Z,101957.38
2022-10-16T18:19:05.528Z,101966.16
2022-10-16T18:22:06.913Z,101976.66
2022-10-16T18:25:08.505Z,101980.94
2022-10-16T18:28:09.887Z,101982.16
2022-10-16T18:31:14.041Z,101984.41
2022-10-16T18:34:15.818Z,101991.47
2022-10-16T18:37:17.891Z,101996.69
2022-10-16T18:40:19.290Z,102007.56
2022-10-16T18:43:20.650Z,102006.00
2022-10-16T18:46:24.322Z,102004.50
2022-10-16T18:49:25.741Z,101996.25
2022-10-16T18:52:27.078Z,102000.94
2022-10-16T18:55:30.662Z,102010.47
2022-10-16T18:58:34.778Z,102009.66
2022-10-16T19:01:37.498Z,102013.56
2022-10-16T19:04:38.834Z,102012.50
2022-10-16T19:07:40.189Z,102008.22
2022-10-16T19:10:41.559Z,102010.03
2022-10-16T19:13:44.531Z,102017.22
2022-10-16T19:16:45.865Z,102011.44
2022-10-16T19:19:47.192Z,102014.97
2022-10-16T19:22:48.535Z,102025.56
2022-10-16T19:25:49.877Z,102030.97
2022-10-16T19:28:51.589Z,102031.97
2022-10-16T19:31:52.936Z,102040.59
2022-10-16T19:34:54.263Z,102041.19
2022-10-16T19:37:55.600Z,102040.44
2022-10-16T19:41:04.889Z,102041.88
2022-10-16T19:44:08.848Z,102040.50
2022-10-16T19:47:10.581Z,102045.00
2022-10-16T19:50:12.546Z,102055.22
2022-10-16T19:53:13.885Z,102051.81
2022-10-16T19:56:20.853Z,102048.13
2022-10-16T19:59:22.181Z,102057.69
2022-10-16T20:02:23.509Z,102048.06
2022-10-16T20:05:24.850Z,102044.34
2022-10-16T20:08:26.237Z,102043.56
2022-10-16T20:11:30.447Z,102051.94
2022-10-16T20:14:31.775Z,102058.91
2022-10-16T20:17:33.114Z,102068.31
2022-10-16T20:20:41.044Z,102063.81
2022-10-16T20:23:42.414Z,102070.53
2022-10-16T20:26:44.231Z,102059.19
2022-10-16T20:29:45.578Z,102061.75
2022-10-16T20:32:46.903Z,102063.47
2022-10-16T20:35:49.591Z,102071.09
2022-10-16T20:38:51.775Z,102068.75
2022-10-16T20:41:53.227Z,102084.44
2022-10-16T20:44:54.578Z,102080.50
2022-10-16T20:47:55.987Z,102078.06
2022-10-16T20:50:57.663Z,102080.72
2022-10-16T20:54:01.299Z,102090.53
2022-10-16T20:57:02.656Z,102092.25
2022-10-16T21:00:07.832Z,102079.59
2022-10-16T21:03:11.236Z,102087.06
2022-10-16T21:06:12.573Z,102105.41
2022-10-16T21:09:13.951Z,102117.44
2022-10-16T21:12:15.308Z,102129.38
2022-10-16T21:15:16.683Z,102133.72
2022-10-16T21:18:18.108Z,102131.00
2022-10-16T21:21:25.751Z,102128.13
2022-10-16T21:24:27.077Z,102122.09
2022-10-16T21:27:28.552Z,102120.91
2022-10-16T21:30:29.916Z,102136.59
2022-10-16T21:33:31.253Z,102147.53
2022-10-16T21:36:37.675Z,102132.72
2022-10-16T21:39:39.113Z,102122.25
2022-10-16T21:42:40.492Z,102125.47
2022-10-16T21:45:41.801Z,102125.91
2022-10-16T21:48:43.164Z,102126.56
2022-10-16T21:51:50.089Z,102120.00
2022-10-16T21:54:51.418Z,102127.16
2022-10-16T21:57:52.737Z,102133.91
2022-10-16T22:00:54.133Z,102123.75
2022-10-16T22:03:55.533Z,102132.28
2022-10-16T22:06:56.876Z,102126.00
2022-10-16T22:09:58.222Z,102135.34
2022-10-16T22:12:59.566Z,102139.63
2022-10-16T22:16:01.230Z,102137.78
2022-10-16T22:19:04.095Z,102131.91
2022-10-16T22:22:05.545Z,102126.34
2022-10-16T22:25:07.302Z,102121.00
2022-10-16T22:28:09.186Z,102118.28
2022-10-16T22:31:12.847Z,102106.06
2022-10-16T22:34:14.326Z,102097.53
2022-10-16T22:37:15.666Z,102108.59
2022-10-16T22:40:17.129Z,102105.81
2022-10-16T22:43:18.586Z,102106.69
2022-10-16T22:46:22.455Z,102116.09
2022-10-16T22:49:24.275Z,102115.03
2022-10-16T22:52:25.914Z,102117.72
2022-10-16T22:55:27.439Z,102114.22
2022-10-16T22:58:29.247Z,102105.38
2022-10-16T23:01:35.776Z,102097.56
2022-10-16T23:04:37.123Z,102086.63
2022-10-16T23:07:38.551Z,102082.66
2022-10-16T23:10:45.896Z,102089.78
2022-10-16T23:13:47.400Z,102094.25
2022-10-16T23:16:49.673Z,102095.00
2022-10-16T23:19:51.014Z,102083.03
2022-10-16T23:22:52.389Z,102086.59
2022-10-16T23:25:53.741Z,102079.78
2022-10-16T23:28:56.706Z,102077.16
2022-10-16T23:31:58.393Z,102073.44
2022-10-16T23:34:59.845Z,102057.59
2022-10-16T23:38:01.186Z,102053.75
2022-10-16T23:41:02.923Z,102049.94
2022-10-16T23:44:04.533Z,102041.81
2022-10-16T23:47:05.867Z,102039.06
2022-10-16T23:50:09.034Z,102031.88
2022-10-16T23:53:10.425Z,102048.97
2022-10-16T23:56:12.322Z,102059.88
2022-10-16T23:59:13.689Z,102062.19
